Time;durP1;ratioP1;P1;durP2;ratioP2;P2;SDS_P1;SDS_P2;PMS_P1;PMS_P2;Temp;Humidity;BMP_temperature;BMP_pressure;BME280_temperature;BME280_humidity;BME280_pressure;Samples;Min_cycle;Max_cycle;Signal;HPM_P1;HPM_P2
2023/07/24 00:01:59;;;;;;;2.23;0.73;;;;;;;18.94;95.33;99858.56;6050934;28;20025;-66
2023/07/24 00:04:54;;;;;;;1.35;0.68;;;;;;;19.01;95.79;99867.41;6049897;28;20148;-65
2023/07/24 00:07:49;;;;;;;4.20;0.90;;;;;;;18.97;95.95;99862.69;6052543;28;20033;-66
2023/07/24 00:10:44;;;;;;;2.47;0.80;;;;;;;18.89;96.28;99850.34;6056433;28;20037;-65
2023/07/24 00:13:40;;;;;;;1.87;0.70;;;;;;;18.92;96.22;99849.91;6050606;28;20034;-66
2023/07/24 00:16:35;;;;;;;2.60;0.90;;;;;;;18.92;96.42;99854.47;6062961;28;20033;-65
2023/07/24 00:19:30;;;;;;;1.43;0.87;;;;;;;18.92;96.39;99859.84;6065912;28;20068;-66
2023/07/24 00:22:26;;;;;;;1.70;0.90;;;;;;;18.90;96.68;99854.69;6052983;28;20038;-66
2023/07/24 00:25:21;;;;;;;2.03;0.90;;;;;;;18.87;96.71;99847.06;6056570;28;20037;-65
2023/07/24 00:28:16;;;;;;;1.80;1.07;;;;;;;18.80;96.96;99856.25;6049884;28;20046;-66
2023/07/24 00:31:11;;;;;;;1.67;0.73;;;;;;;19.00;96.67;99870.31;6050319;28;20482;-65
2023/07/24 00:34:07;;;;;;;5.00;0.90;;;;;;;18.90;97.09;99868.13;6053236;28;20042;-65
2023/07/24 00:37:02;;;;;;;1.60;0.67;;;;;;;18.89;97.62;99874.53;6054597;28;20072;-66
2023/07/24 00:39:57;;;;;;;5.23;0.83;;;;;;;18.76;97.90;99855.03;6049874;28;20453;-65
2023/07/24 00:42:53;;;;;;;1.43;1.07;;;;;;;18.78;98.39;99858.34;6049974;28;20484;-66
2023/07/24 00:45:48;;;;;;;2.83;1.00;;;;;;;18.76;98.61;99861.22;6049645;28;20025;-66
2023/07/24 00:48:43;;;;;;;4.22;1.20;;;;;;;18.66;99.24;99865.44;6053225;28;20125;-65
2023/07/24 00:51:39;;;;;;;2.57;1.07;;;;;;;18.59;99.77;99854.75;6049710;28;20022;-67
2023/07/24 00:54:34;;;;;;;3.17;1.00;;;;;;;18.47;100.00;99856.47;6047784;28;20739;-67
2023/07/24 00:57:30;;;;;;;2.05;0.93;;;;;;;18.40;100.00;99853.00;6053619;28;20053;-65
2023/07/24 01:00:26;;;;;;;2.20;0.90;;;;;;;18.47;100.00;99853.78;6049866;28;20480;-66
2023/07/24 01:03:27;;;;;;;1.65;1.00;;;;;;;18.33;100.00;99838.81;6055086;28;20080;-66
2023/07/24 01:06:23;;;;;;;3.00;1.30;;;;;;;18.32;100.00;99837.16;6052835;28;20034;-65
2023/07/24 01:09:18;;;;;;;1.65;1.02;;;;;;;18.13;100.00;99822.84;6055304;28;20045;-66
2023/07/24 01:12:21;;;;;;;2.00;1.20;;;;;;;18.04;100.00;99823.31;6056842;28;20048;-65
2023/07/24 01:15:24;;;;;;;1.92;1.00;;;;;;;18.10;100.00;99846.63;6054154;28;20034;-66
2023/07/24 01:18:20;;;;;;;1.70;1.05;;;;;;;18.04;100.00;99839.44;6055237;28;20025;-66
2023/07/24 01:21:20;;;;;;;3.15;1.20;;;;;;;18.18;100.00;99846.34;6048449;28;20061;-66
2023/07/24 01:24:34;;;;;;;4.00;1.20;;;;;;;18.21;100.00;99832.47;6051733;28;20435;-66
2023/07/24 01:27:29;;;;;;;4.10;1.20;;;;;;;18.27;100.00;99845.03;6059992;28;20029;-66
2023/07/24 01:30:24;;;;;;;1.37;0.80;;;;;;;18.22;100.00;99840.34;6054545;28;20389;-65
2023/07/24 01:33:20;;;;;;;1.63;1.00;;;;;;;18.30;100.00;99845.44;6052342;28;20045;-66
2023/07/24 01:36:15;;;;;;;2.15;1.42;;;;;;;18.30;100.00;99839.25;6049194;28;20323;-66
2023/07/24 01:39:11;;;;;;;3.20;1.23;;;;;;;18.41;100.00;99844.75;6059406;28;20036;-65
2023/07/24 01:42:06;;;;;;;2.65;1.40;;;;;;;18.47;100.00;99837.69;6051366;28;20264;-66
2023/07/24 01:45:03;;;;;;;3.10;1.08;;;;;;;18.44;100.00;99822.81;6048227;28;20033;-65
2023/07/24 01:47:59;;;;;;;2.42;1.30;;;;;;;18.57;99.72;99829.16;6049409;28;20022;-65
2023/07/24 01:50:54;;;;;;;4.00;1.35;;;;;;;18.51;99.13;99820.09;6048827;28;20503;-66
2023/07/24 01:53:50;;;;;;;2.93;1.30;;;;;;;18.62;98.46;99822.06;6059189;28;20025;-65
2023/07/24 01:56:45;;;;;;;2.50;1.50;;;;;;;18.63;97.93;99809.47;6051017;28;20018;-65
2023/07/24 01:59:40;;;;;;;2.60;1.27;;;;;;;18.69;97.49;99811.28;6049115;28;20540;-66
2023/07/24 02:02:35;;;;;;;2.20;1.20;;;;;;;18.69;97.45;99817.50;6052712;28;20736;-65
2023/07/24 02:05:31;;;;;;;2.27;1.30;;;;;;;18.67;96.73;99813.38;6052730;28;20034;-65
2023/07/24 02:08:26;;;;;;;3.57;1.70;;;;;;;18.72;96.58;99817.06;6062074;28;20032;-66
2023/07/24 02:11:21;;;;;;;2.83;1.40;;;;;;;18.69;96.05;99801.38;6053900;28;20025;-66
2023/07/24 02:14:17;;;;;;;2.83;1.17;;;;;;;18.71;96.03;99806.50;6056920;28;20032;-68
2023/07/24 02:17:13;;;;;;;2.95;1.55;;;;;;;18.78;96.07;99821.53;6057092;28;20112;-66
2023/07/24 02:20:08;;;;;;;3.17;1.60;;;;;;;18.76;95.76;99817.41;6052704;28;20417;-66
2023/07/24 02:23:03;;;;;;;2.50;1.50;;;;;;;18.85;95.33;99816.09;6054878;28;20028;-65
2023/07/24 02:25:59;;;;;;;2.87;1.40;;;;;;;18.65;95.45;99792.09;6057184;28;20100;-65
2023/07/24 02:28:54;;;;;;;4.17;1.60;;;;;;;18.74;95.62;99808.75;6052787;28;20034;-66
2023/07/24 02:31:50;;;;;;;2.50;1.30;;;;;;;18.76;95.99;99822.78;6057274;28;20456;-66
2023/07/24 02:34:45;;;;;;;3.15;1.33;;;;;;;18.73;95.58;99807.94;6051977;28;20295;-65
2023/07/24 02:37:40;;;;;;;2.83;1.50;;;;;;;18.71;96.21;99809.19;6053218;28;20040;-66
2023/07/24 02:40:36;;;;;;;2.73;1.47;;;;;;;18.66;96.35;99811.72;6062629;28;20041;-66
2023/07/24 02:43:31;;;;;;;3.70;1.38;;;;;;;18.63;96.30;99815.69;6053760;28;20033;-66
2023/07/24 02:46:28;;;;;;;3.03;1.30;;;;;;;18.66;96.70;99825.97;6055304;28;20032;-65
2023/07/24 02:49:23;;;;;;;4.15;1.40;;;;;;;18.61;96.53;99808.88;6052162;28;20323;-66
2023/07/24 02:52:19;;;;;;;3.23;1.30;;;;;;;18.62;97.23;99811.34;6064404;28;20037;-66
2023/07/24 02:55:14;;;;;;;3.13;1.40;;;;;;;18.52;97.51;99811.03;6062213;28;20418;-65
2023/07/24 02:58:12;;;;;;;3.40;1.23;;;;;;;18.53;97.76;99815.38;6054477;28;20034;-66
2023/07/24 03:01:07;;;;;;;2.75;1.20;;;;;;;18.55;98.09;99832.06;6057795;28;20030;-66
2023/07/24 03:04:05;;;;;;;3.13;1.65;;;;;;;18.45;98.00;99812.91;6058269;28;20048;-66
2023/07/24 03:07:00;;;;;;;2.45;1.40;;;;;;;18.53;98.10;99834.16;6054884;28;20022;-66
2023/07/24 03:09:55;;;;;;;3.37;1.63;;;;;;;18.37;98.29;99807.81;6064055;28;20044;-65
2023/07/24 03:12:51;;;;;;;2.60;1.50;;;;;;;18.46;98.08;99814.53;6051610;28;20477;-65
2023/07/24 03:15:56;;;;;;;3.53;1.73;;;;;;;18.46;97.88;99801.13;6052820;28;20044;-65
2023/07/24 03:18:51;;;;;;;4.13;1.40;;;;;;;18.41;98.26;99798.28;6045096;28;20032;-65
2023/07/24 03:21:46;;;;;;;2.37;1.40;;;;;;;18.29;98.54;99797.34;6051709;28;20421;-65
2023/07/24 03:24:42;;;;;;;3.10;1.43;;;;;;;18.30;99.38;99815.09;6050647;28;20042;-65
2023/07/24 03:27:37;;;;;;;5.40;1.70;;;;;;;18.23;99.54;99817.00;6051964;28;20708;-66
2023/07/24 03:30:33;;;;;;;4.63;2.53;;;;;;;18.18;99.87;99806.91;6064487;28;20080;-66
2023/07/24 03:33:28;;;;;;;2.63;1.33;;;;;;;18.30;99.98;99818.59;6056267;28;20736;-66
2023/07/24 03:36:23;;;;;;;3.00;1.60;;;;;;;18.20;99.96;99794.09;6054036;28;20041;-65
2023/07/24 03:39:18;;;;;;;2.30;1.30;;;;;;;18.24;99.94;99799.84;6063280;28;20821;-65
2023/07/24 03:42:25;;;;;;;2.93;1.33;;;;;;;18.06;100.00;99799.78;6058135;28;20041;-65
2023/07/24 03:45:20;;;;;;;2.08;1.30;;;;;;;17.90;100.00;99789.56;6050955;28;20026;-65
2023/07/24 03:48:16;;;;;;;2.40;1.40;;;;;;;17.88;100.00;99797.00;6055151;28;20025;-66
2023/07/24 03:51:11;;;;;;;2.63;1.30;;;;;;;17.85;100.00;99804.44;6053614;28;20049;-66
2023/07/24 03:54:06;;;;;;;1.90;1.07;;;;;;;17.68;100.00;99787.22;6058976;28;20029;-66
2023/07/24 03:57:02;;;;;;;2.63;1.40;;;;;;;17.72;100.00;99791.09;6053513;28;20127;-65
2023/07/24 03:59:57;;;;;;;3.30;1.45;;;;;;;17.63;100.00;99783.53;6050737;28;20516;-64
2023/07/24 04:02:52;;;;;;;2.57;1.23;;;;;;;17.71;100.00;99792.16;6050378;28;20049;-65
2023/07/24 04:05:47;;;;;;;3.47;1.30;;;;;;;17.73;100.00;99798.13;6050074;28;20096;-66
2023/07/24 04:08:43;;;;;;;2.30;1.33;;;;;;;17.64;100.00;99775.25;6067651;28;20446;-64
2023/07/24 04:11:39;;;;;;;2.57;1.43;;;;;;;17.66;100.00;99778.56;6050782;28;20323;-64
2023/07/24 04:14:34;;;;;;;2.72;1.38;;;;;;;17.69;100.00;99780.78;6051483;28;20496;-66
2023/07/24 04:17:29;;;;;;;2.23;1.20;;;;;;;17.82;100.00;99799.53;6062143;28;20038;-65
2023/07/24 04:20:25;;;;;;;2.93;1.40;;;;;;;17.80;100.00;99784.69;6056413;28;20041;-65
2023/07/24 04:23:20;;;;;;;3.73;1.40;;;;;;;17.93;100.00;99799.88;6048930;28;20385;-66
2023/07/24 04:26:15;;;;;;;3.20;1.63;;;;;;;17.96;100.00;99783.34;6049703;28;20080;-64
2023/07/24 04:29:11;;;;;;;2.40;1.20;;;;;;;18.04;100.00;99791.13;6052250;28;20024;-65
2023/07/24 04:32:06;;;;;;;3.47;1.10;;;;;;;18.07;100.00;99769.22;6050295;28;20042;-64
2023/07/24 04:35:02;;;;;;;3.25;1.50;;;;;;;18.20;100.00;99763.75;6058994;28;20040;-65
2023/07/24 04:37:57;;;;;;;2.17;1.10;;;;;;;18.26;100.00;99774.44;6053659;28;20108;-65
2023/07/24 04:40:53;;;;;;;2.50;1.20;;;;;;;18.14;100.00;99776.19;6055991;28;20415;-65
2023/07/24 04:43:48;;;;;;;2.43;1.10;;;;;;;18.13;100.00;99760.28;6057849;28;20294;-64
2023/07/24 04:46:43;;;;;;;3.10;0.97;;;;;;;18.13;100.00;99766.47;6054092;28;20037;-65
2023/07/24 04:49:38;;;;;;;2.20;1.00;;;;;;;18.33;100.00;99769.00;6056207;28;20110;-66
2023/07/24 04:52:34;;;;;;;2.20;1.00;;;;;;;18.40;100.00;99748.28;6045672;28;20041;-65
2023/07/24 04:55:29;;;;;;;2.70;1.23;;;;;;;19.08;95.99;99753.66;6060938;28;20121;-66
2023/07/24 04:58:24;;;;;;;2.97;1.30;;;;;;;18.87;95.74;99765.63;6063462;28;20308;-65
2023/07/24 05:01:20;;;;;;;2.23;1.20;;;;;;;18.51;97.55;99738.75;6049615;28;20381;-65
2023/07/24 05:04:15;;;;;;;2.53;1.30;;;;;;;18.60;98.40;99740.09;6049358;28;20037;-66
2023/07/24 05:07:10;;;;;;;3.80;1.27;;;;;;;18.62;97.60;99738.00;6056071;28;20062;-66
2023/07/24 05:10:06;;;;;;;1.90;0.97;;;;;;;18.52;97.44;99713.53;6049249;28;20026;-65
2023/07/24 05:13:01;;;;;;;2.97;1.13;;;;;;;18.72;97.29;99725.72;6060666;28;20029;-66
2023/07/24 05:15:56;;;;;;;2.47;1.03;;;;;;;19.34;93.50;99697.69;6055791;28;20033;-66
2023/07/24 05:18:52;;;;;;;1.83;1.00;;;;;;;19.64;89.80;99708.47;6051595;28;20281;-66
2023/07/24 05:21:47;;;;;;;2.77;1.23;;;;;;;19.82;87.75;99705.69;6052730;28;20397;-65
2023/07/24 05:24:43;;;;;;;2.47;1.27;;;;;;;19.45;90.02;99720.31;6061295;28;20037;-65
2023/07/24 05:27:38;;;;;;;3.13;1.40;;;;;;;19.61;88.84;99698.16;6054606;28;20033;-66
2023/07/24 05:30:33;;;;;;;2.80;1.10;;;;;;;20.10;86.94;99713.94;6049449;28;20038;-66
2023/07/24 05:33:29;;;;;;;3.37;1.33;;;;;;;20.27;84.64;99694.44;6051268;28;20486;-65
2023/07/24 05:36:25;;;;;;;2.50;1.23;;;;;;;20.35;85.83;99710.25;6060637;28;20076;-66
2023/07/24 05:39:21;;;;;;;3.80;1.25;;;;;;;20.47;84.56;99695.72;6052166;28;20069;-67
2023/07/24 05:42:17;;;;;;;2.87;1.27;;;;;;;20.71;83.72;99700.03;6062236;28;20420;-66
2023/07/24 05:45:12;;;;;;;4.23;1.27;;;;;;;20.92;81.47;99705.84;6058346;28;20029;-65
2023/07/24 05:48:07;;;;;;;2.67;1.17;;;;;;;21.72;78.58;99703.94;6074134;28;20032;-66
2023/07/24 05:51:03;;;;;;;4.27;1.30;;;;;;;22.58;74.13;99699.94;6062456;28;20276;-67
2023/07/24 05:53:58;;;;;;;2.40;1.30;;;;;;;22.06;74.24;99697.53;6056263;28;20891;-66
2023/07/24 05:56:53;;;;;;;4.03;1.30;;;;;;;21.14;78.70;99702.31;6046940;28;20279;-65
2023/07/24 05:59:50;;;;;;;2.53;1.27;;;;;;;21.02;81.21;99728.44;6066098;28;20299;-66
2023/07/24 06:02:45;;;;;;;3.38;1.45;;;;;;;20.47;84.36;99730.72;6056726;28;20029;-66
2023/07/24 06:05:41;;;;;;;2.07;1.20;;;;;;;20.25;85.94;99710.81;6050569;28;20045;-66
2023/07/24 06:08:36;;;;;;;5.07;1.67;;;;;;;20.02;86.74;99711.59;6065585;28;20292;-66
2023/07/24 06:11:31;;;;;;;4.27;1.53;;;;;;;19.44;89.95;99681.00;6060592;28;20042;-64
2023/07/24 06:14:27;;;;;;;3.00;1.43;;;;;;;19.54;92.90;99694.75;6059019;28;20059;-65
2023/07/24 06:17:22;;;;;;;4.27;1.77;;;;;;;19.33;94.59;99696.03;6056841;28;20327;-64
2023/07/24 06:20:17;;;;;;;5.30;1.80;;;;;;;19.19;97.01;99693.72;6058903;28;20030;-64
2023/07/24 06:23:13;;;;;;;3.40;1.60;;;;;;;18.93;97.96;99701.09;6063000;28;20033;-64
2023/07/24 06:26:08;;;;;;;3.97;1.63;;;;;;;18.83;98.98;99691.91;6049252;28;20284;-64
2023/07/24 06:29:03;;;;;;;4.30;1.80;;;;;;;18.86;99.29;99697.63;6050189;28;20359;-64
2023/07/24 06:31:58;;;;;;;3.30;1.70;;;;;;;18.90;100.00;99685.41;6053913;28;20065;-65
2023/07/24 06:34:54;;;;;;;3.07;1.67;;;;;;;19.18;98.27;99686.72;6063187;28;20033;-64
2023/07/24 06:37:49;;;;;;;4.07;2.00;;;;;;;19.40;97.74;99682.53;6058714;28;20065;-65
2023/07/24 06:40:44;;;;;;;3.00;1.40;;;;;;;19.62;95.80;99680.16;6060738;28;20354;-64
2023/07/24 06:43:40;;;;;;;3.87;1.97;;;;;;;19.46;96.24;99673.53;6063451;28;20037;-64
2023/07/24 06:46:35;;;;;;;2.90;1.50;;;;;;;19.58;95.55;99656.41;6056581;28;20037;-65
2023/07/24 06:49:30;;;;;;;8.47;1.70;;;;;;;19.61;93.59;99649.72;6055689;28;20108;-64
2023/07/24 06:52:25;;;;;;;4.00;1.40;;;;;;;19.74;91.73;99646.81;6062939;28;20083;-65
2023/07/24 06:55:21;;;;;;;3.57;1.63;;;;;;;19.81;91.62;99652.91;6048162;28;20767;-64
2023/07/24 06:58:16;;;;;;;4.20;1.70;;;;;;;19.81;91.16;99644.03;6061642;28;20030;-64
2023/07/24 07:01:11;;;;;;;5.87;1.67;;;;;;;19.79;90.53;99636.19;6062974;28;20745;-65
2023/07/24 07:04:07;;;;;;;5.90;1.90;;;;;;;19.76;91.04;99636.66;6050573;28;20053;-64
2023/07/24 07:07:02;;;;;;;4.00;1.30;;;;;;;19.88;90.96;99645.56;6062410;28;20038;-65
2023/07/24 07:09:57;;;;;;;3.60;1.80;;;;;;;19.88;90.68;99645.56;6052527;28;20789;-64
2023/07/24 07:12:53;;;;;;;3.30;1.70;;;;;;;19.81;90.42;99628.69;6057579;28;20037;-64
2023/07/24 07:15:48;;;;;;;8.77;1.93;;;;;;;19.79;89.83;99630.81;6058893;28;20106;-65
2023/07/24 07:18:43;;;;;;;5.00;1.73;;;;;;;19.95;89.58;99642.75;6060870;28;20033;-65
2023/07/24 07:21:38;;;;;;;3.40;1.60;;;;;;;20.00;88.38;99632.91;6055457;28;20040;-65
2023/07/24 07:24:34;;;;;;;3.00;1.53;;;;;;;19.97;88.29;99622.66;6047472;28;20044;-65
2023/07/24 07:27:30;;;;;;;4.00;1.60;;;;;;;20.09;87.23;99618.06;6059327;28;20163;-66
2023/07/24 07:30:26;;;;;;;4.75;2.00;;;;;;;20.16;86.23;99605.28;6052992;28;20064;-65
2023/07/24 07:33:24;;;;;;;4.23;1.77;;;;;;;20.76;85.42;99602.31;6059072;28;20445;-65
2023/07/24 07:36:21;;;;;;;5.32;1.38;;;;;;;20.78;83.23;99601.00;6053935;28;20034;-65
2023/07/24 07:39:17;;;;;;;3.15;1.60;;;;;;;21.14;81.81;99599.84;6047823;28;20061;-65
2023/07/24 07:42:12;;;;;;;3.55;1.85;;;;;;;21.85;79.69;99604.56;6060615;28;20044;-65
2023/07/24 07:45:08;;;;;;;5.40;1.60;;;;;;;22.23;76.62;99584.88;6054778;28;20120;-66
2023/07/24 07:48:03;;;;;;;3.00;1.90;;;;;;;22.57;72.92;99582.91;6043432;28;20025;-66
2023/07/24 07:50:59;;;;;;;3.28;1.65;;;;;;;22.90;71.94;99587.38;6047746;28;20026;-66
2023/07/24 07:53:54;;;;;;;3.00;1.63;;;;;;;22.97;71.93;99590.69;6046857;28;20091;-66
2023/07/24 07:56:49;;;;;;;3.70;1.87;;;;;;;22.66;72.61;99604.94;6050213;28;20280;-67
2023/07/24 07:59:45;;;;;;;4.53;1.70;;;;;;;22.60;73.51;99597.81;6047844;28;20096;-66
2023/07/24 08:02:40;;;;;;;3.90;1.60;;;;;;;23.05;70.45;99579.41;6053496;28;20033;-66
2023/07/24 08:05:35;;;;;;;6.15;2.00;;;;;;;22.73;71.05;99581.22;6049297;28;20056;-66
2023/07/24 08:08:31;;;;;;;5.10;1.87;;;;;;;22.94;70.37;99591.19;6051848;28;20057;-66
2023/07/24 08:11:26;;;;;;;3.63;2.00;;;;;;;23.43;68.96;99590.09;6048449;28;20034;-66
2023/07/24 08:14:21;;;;;;;4.53;1.73;;;;;;;23.82;67.68;99592.59;6049710;28;20046;-66
2023/07/24 08:17:17;;;;;;;4.20;1.80;;;;;;;23.50;66.51;99592.63;6054587;28;20071;-67
2023/07/24 08:20:12;;;;;;;3.57;1.90;;;;;;;23.29;70.23;99599.69;6052478;28;20029;-66
2023/07/24 08:23:08;;;;;;;5.22;1.92;;;;;;;23.20;68.84;99579.59;6055965;28;20281;-65
2023/07/24 08:26:03;;;;;;;5.70;2.40;;;;;;;23.09;68.96;99583.25;6054049;28;20442;-66
2023/07/24 08:28:58;;;;;;;5.77;2.07;;;;;;;22.99;69.17;99580.47;6048013;28;20280;-66
2023/07/24 08:31:54;;;;;;;6.77;2.20;;;;;;;22.96;71.84;99589.06;6046007;28;20094;-66
2023/07/24 08:34:49;;;;;;;5.80;2.13;;;;;;;22.49;75.51;99578.75;6047488;28;20292;-66
2023/07/24 08:37:44;;;;;;;3.97;2.40;;;;;;;21.28;85.27;99582.28;6046570;28;20045;-64
2023/07/24 08:40:40;;;;;;;4.93;2.13;;;;;;;20.14;93.28;99615.50;6046629;28;20462;-63
2023/07/24 08:43:37;;;;;;;8.60;3.08;;;;;;;19.21;100.00;99627.13;6054555;28;20121;-64
2023/07/24 08:46:35;;;;;;;8.77;3.35;;;;;;;18.46;100.00;99615.84;6047413;28;20108;-64
2023/07/24 08:49:31;;;;;;;7.43;3.20;;;;;;;18.21;100.00;99633.88;6048253;28;20030;-63
2023/07/24 08:52:27;;;;;;;7.57;2.78;;;;;;;18.06;100.00;99654.88;6044703;28;20080;-63
2023/07/24 08:55:22;;;;;;;9.70;2.42;;;;;;;17.69;100.00;99656.66;6047609;28;20026;-65
2023/07/24 08:58:18;;;;;;;5.40;2.13;;;;;;;17.65;100.00;99653.56;6046906;28;20038;-63
2023/07/24 09:01:13;;;;;;;4.17;1.83;;;;;;;17.66;100.00;99655.22;6048146;28;20112;-63
2023/07/24 09:04:08;;;;;;;5.40;1.98;;;;;;;17.57;100.00;99645.78;6052465;28;20099;-63
2023/07/24 09:07:04;;;;;;;4.07;2.07;;;;;;;17.98;100.00;99665.88;6046459;28;20488;-64
2023/07/24 09:09:59;;;;;;;5.40;1.95;;;;;;;18.19;100.00;99644.00;6047139;28;20324;-64
2023/07/24 09:12:55;;;;;;;3.73;1.70;;;;;;;18.59;100.00;99658.69;6051957;28;20100;-65
2023/07/24 09:15:50;;;;;;;4.78;2.38;;;;;;;18.86;100.00;99635.84;6055149;28;20030;-65
2023/07/24 09:18:46;;;;;;;9.17;1.90;;;;;;;19.47;100.00;99626.78;6052677;28;20041;-65
2023/07/24 09:21:42;;;;;;;6.15;1.77;;;;;;;19.69;100.00;99635.94;6051253;28;20299;-65
2023/07/24 09:24:38;;;;;;;4.95;1.70;;;;;;;19.99;100.00;99625.91;6050678;28;20041;-64
2023/07/24 09:27:33;;;;;;;4.53;2.00;;;;;;;20.15;100.00;99625.22;6058720;28;20132;-64
2023/07/24 09:30:29;;;;;;;5.13;2.40;;;;;;;20.48;100.00;99623.81;6050486;28;20034;-66
2023/07/24 09:33:35;;;;;;;4.87;2.10;;;;;;;20.45;100.00;99613.50;6048708;28;20138;-65
2023/07/24 09:36:38;;;;;;;6.10;2.30;;;;;;;20.66;100.00;99600.22;6050631;28;20426;-65
2023/07/24 09:39:33;;;;;;;5.03;2.38;;;;;;;20.99;100.00;99607.59;6073308;28;20099;-65
2023/07/24 09:42:33;;;;;;;8.75;2.40;;;;;;;21.36;100.00;99619.66;6073275;28;20457;-66
2023/07/24 09:45:29;;;;;;;5.93;2.60;;;;;;;21.69;100.00;99620.75;6071904;28;20033;-66
2023/07/24 09:48:25;;;;;;;6.15;2.22;;;;;;;21.70;96.89;99620.50;6072092;28;20036;-66
2023/07/24 09:51:21;;;;;;;5.32;2.33;;;;;;;22.02;96.44;99617.25;6056441;28;20104;-66
2023/07/24 09:54:26;;;;;;;6.67;2.30;;;;;;;21.93;93.41;99625.75;6048675;28;20432;-66
2023/07/24 09:57:21;;;;;;;4.72;2.10;;;;;;;21.76;93.67;99626.81;6063562;28;20109;-66
2023/07/24 10:00:17;;;;;;;4.97;2.30;;;;;;;22.16;92.11;99627.47;6059173;28;20029;-65
2023/07/24 10:03:13;;;;;;;3.83;2.22;;;;;;;22.52;91.73;99624.22;6059567;28;20034;-66
2023/07/24 10:06:10;;;;;;;3.65;2.03;;;;;;;22.34;85.37;99607.47;6066180;28;20099;-66
2023/07/24 10:09:06;;;;;;;6.18;2.60;;;;;;;22.27;85.26;99623.84;6063558;28;20387;-66
2023/07/24 10:12:02;;;;;;;3.83;2.10;;;;;;;22.14;86.92;99624.22;6068906;28;20168;-66
2023/07/24 10:14:57;;;;;;;4.65;2.35;;;;;;;22.18;85.90;99628.03;6070457;28;20037;-66
2023/07/24 10:18:01;;;;;;;4.25;2.10;;;;;;;22.08;86.18;99610.88;6068687;28;20116;-66
2023/07/24 10:21:07;;;;;;;5.72;2.67;;;;;;;22.46;84.52;99616.28;6053675;28;20053;-66
2023/07/24 10:24:03;;;;;;;4.95;2.60;;;;;;;22.46;82.59;99619.81;6066334;28;20084;-66
2023/07/24 10:26:58;;;;;;;4.65;2.65;;;;;;;22.45;83.32;99601.13;6063227;28;20493;-66
2023/07/24 10:30:04;;;;;;;7.07;2.42;;;;;;;22.72;79.51;99591.22;6059802;28;20063;-67
2023/07/24 10:33:07;;;;;;;;;;;;;;;23.06;77.41;99595.41;6056273;28;20057;-67
2023/07/24 10:36:08;;;;;;;5.38;2.13;;;;;;;22.71;75.44;99596.88;6044646;28;19916;-66
2023/07/24 10:39:16;;;;;;;6.22;2.38;;;;;;;22.22;78.50;99594.06;6072618;28;20029;-67
2023/07/24 10:42:11;;;;;;;5.18;2.22;;;;;;;21.92;80.11;99583.66;6069779;28;20033;-66
2023/07/24 10:45:07;;;;;;;4.70;2.23;;;;;;;21.93;81.27;99569.06;6058665;28;20052;-66
2023/07/24 10:48:03;;;;;;;3.90;2.17;;;;;;;22.87;80.37;99574.38;6067825;28;20280;-66
2023/07/24 10:50:58;;;;;;;4.75;2.10;;;;;;;23.84;76.01;99557.94;6060854;28;20045;-66
2023/07/24 10:53:53;;;;;;;5.20;2.10;;;;;;;24.37;71.71;99555.03;6055999;28;20037;-66
2023/07/24 10:56:49;;;;;;;3.97;2.10;;;;;;;24.39;69.82;99552.88;6063230;28;20040;-66
2023/07/24 10:59:45;;;;;;;3.93;1.93;;;;;;;24.44;66.61;99563.72;6065784;28;20469;-67
2023/07/24 11:02:40;;;;;;;3.05;1.70;;;;;;;24.22;67.40;99568.50;6052896;28;20029;-67
2023/07/24 11:05:42;;;;;;;3.97;2.00;;;;;;;23.76;66.84;99566.53;6052076;28;20428;-66
2023/07/24 11:08:40;;;;;;;6.15;1.88;;;;;;;23.72;68.75;99563.56;6068108;28;20030;-67
2023/07/24 11:11:35;;;;;;;2.90;1.80;;;;;;;23.96;67.59;99569.41;6051723;28;20034;-66
2023/07/24 11:14:30;;;;;;;3.55;1.80;;;;;;;23.76;67.67;99567.38;6056427;28;20076;-67
2023/07/24 11:17:37;;;;;;;3.47;1.80;;;;;;;23.76;68.52;99555.72;6056685;28;20045;-67
2023/07/24 11:20:32;;;;;;;3.60;2.15;;;;;;;23.45;68.83;99563.63;6054680;28;20029;-67
2023/07/24 11:23:27;;;;;;;4.73;2.10;;;;;;;23.30;69.10;99563.44;6060432;28;20088;-67
2023/07/24 11:26:24;;;;;;;4.00;2.00;;;;;;;23.46;69.79;99561.72;6061576;28;20037;-67
2023/07/24 11:29:19;;;;;;;4.60;2.03;;;;;;;23.94;68.07;99536.34;6070711;28;20673;-67
2023/07/24 11:32:21;;;;;;;4.30;2.30;;;;;;;24.13;67.18;99551.13;6058406;28;20057;-66
2023/07/24 11:35:17;;;;;;;4.97;2.25;;;;;;;23.80;68.28;99543.28;6062747;28;20398;-67
2023/07/24 11:38:13;;;;;;;6.27;2.13;;;;;;;23.75;66.90;99532.44;6052659;28;20457;-66
2023/07/24 11:41:09;;;;;;;4.93;2.28;;;;;;;23.64;67.79;99543.16;6052320;28;20065;-67
2023/07/24 11:44:04;;;;;;;6.53;2.30;;;;;;;23.85;68.92;99538.72;6062930;28;20377;-67
2023/07/24 11:47:04;;;;;;;3.90;2.00;;;;;;;23.88;69.14;99535.50;6053982;28;20396;-67
2023/07/24 11:49:59;;;;;;;;;;;;;;;23.81;69.48;99548.44;6064603;28;20268;-67
2023/07/24 11:52:54;;;;;;;3.95;2.15;;;;;;;23.74;68.81;99533.50;6063751;28;19951;-67
2023/07/24 11:55:51;;;;;;;4.73;2.43;;;;;;;24.13;69.53;99534.88;6062395;28;20026;-67
2023/07/24 11:58:47;;;;;;;4.88;2.55;;;;;;;24.70;66.96;99535.66;6050339;28;20033;-67
2023/07/24 12:01:47;;;;;;;3.90;2.67;;;;;;;25.23;66.24;99520.00;6060587;28;20453;-67
2023/07/24 12:04:43;;;;;;;3.78;2.50;;;;;;;25.89;63.11;99524.34;6063252;28;20026;-67
2023/07/24 12:07:38;;;;;;;5.30;2.47;;;;;;;26.12;61.70;99509.31;6063026;28;20059;-67
2023/07/24 12:10:36;;;;;;;5.57;2.30;;;;;;;26.04;59.00;99518.88;6055328;28;20034;-67
2023/07/24 12:13:32;;;;;;;3.58;1.90;;;;;;;26.02;59.35;99493.88;6065752;28;20056;-67
2023/07/24 12:16:28;;;;;;;4.50;2.35;;;;;;;26.27;59.66;99505.78;6067248;28;20372;-67
2023/07/24 12:19:23;;;;;;;3.95;2.10;;;;;;;26.77;55.96;99505.50;6060193;28;20037;-68
2023/07/24 12:22:19;;;;;;;4.13;2.10;;;;;;;26.88;54.97;99498.94;6054988;28;20346;-67
2023/07/24 12:25:15;;;;;;;4.22;2.45;;;;;;;26.47;55.96;99492.09;6062226;28;20038;-67
2023/07/24 12:28:10;;;;;;;3.85;2.30;;;;;;;25.82;55.79;99499.34;6051944;28;20052;-67
2023/07/24 12:31:06;;;;;;;5.63;2.43;;;;;;;25.85;55.19;99496.09;6056780;28;20063;-67
2023/07/24 12:34:01;;;;;;;3.70;2.42;;;;;;;25.78;53.73;99481.16;6066276;28;20025;-67
2023/07/24 12:36:57;;;;;;;4.30;2.33;;;;;;;25.55;54.28;99482.56;6064565;28;20179;-67
2023/07/24 12:39:52;;;;;;;4.50;2.30;;;;;;;24.76;60.95;99499.31;6064767;28;20385;-67
2023/07/24 12:42:48;;;;;;;4.20;2.70;;;;;;;23.61;66.86;99516.66;6061875;28;20480;-67
2023/07/24 12:45:43;;;;;;;4.60;2.40;;;;;;;23.19;71.22;99501.38;6053955;28;20546;-67
2023/07/24 12:48:38;;;;;;;3.93;2.40;;;;;;;22.72;74.08;99490.41;6059627;28;20307;-67
2023/07/24 12:51:33;;;;;;;5.83;2.97;;;;;;;22.30;77.60;99501.78;6051677;28;20551;-67
2023/07/24 12:54:29;;;;;;;6.53;3.13;;;;;;;22.40;76.95;99509.19;6063651;28;20026;-67
2023/07/24 12:57:26;;;;;;;5.60;2.90;;;;;;;22.63;76.61;99481.94;6060476;28;20084;-66
2023/07/24 13:00:21;;;;;;;7.88;3.17;;;;;;;22.72;75.20;99474.19;6050837;28;20264;-67
2023/07/24 13:03:16;;;;;;;6.63;2.88;;;;;;;22.94;74.48;99489.25;6051803;28;20421;-67
2023/07/24 13:06:12;;;;;;;5.70;3.17;;;;;;;22.62;75.27;99480.25;6054064;28;20021;-67
2023/07/24 13:09:07;;;;;;;6.07;2.90;;;;;;;22.33;76.00;99487.78;6063138;28;20316;-67
2023/07/24 13:12:03;;;;;;;6.57;3.03;;;;;;;22.15;77.38;99508.91;6055390;28;20121;-66
2023/07/24 13:14:58;;;;;;;5.13;3.08;;;;;;;21.93;77.88;99498.06;6055302;28;20403;-66
2023/07/24 13:17:53;;;;;;;7.20;2.80;;;;;;;21.73;78.72;99503.16;6052123;28;20029;-67
2023/07/24 13:20:48;;;;;;;6.30;3.30;;;;;;;21.83;78.82;99511.38;6051505;28;20077;-66
2023/07/24 13:23:44;;;;;;;5.23;2.90;;;;;;;21.89;79.11;99497.75;6060100;28;20045;-66
2023/07/24 13:26:40;;;;;;;4.27;2.57;;;;;;;22.09;77.15;99499.91;6062051;28;20378;-67
2023/07/24 13:29:35;;;;;;;4.80;2.65;;;;;;;22.06;76.31;99495.00;6049139;28;20473;-66
2023/07/24 13:32:31;;;;;;;3.80;2.13;;;;;;;22.11;74.82;99486.97;6061891;28;20087;-67
2023/07/24 13:35:26;;;;;;;4.22;2.35;;;;;;;22.31;74.43;99492.59;6054652;28;20907;-67
2023/07/24 13:38:21;;;;;;;3.30;1.90;;;;;;;22.28;73.24;99451.78;6058948;28;20116;-67
2023/07/24 13:41:17;;;;;;;3.77;2.13;;;;;;;23.00;71.55;99460.38;6056273;28;20030;-67
2023/07/24 13:44:12;;;;;;;3.80;2.27;;;;;;;23.72;70.20;99443.59;6054009;28;20038;-67
2023/07/24 13:47:07;;;;;;;3.00;1.77;;;;;;;24.04;64.98;99425.34;6053201;28;20284;-67